createdAt,value
2024-04-22T00:01:10.137Z,99864.53
2024-04-22T00:03:36.979Z,99867.56
2024-04-22T00:06:03.778Z,99866.66
2024-04-22T00:08:30.530Z,99866.66
2024-04-22T00:11:05.227Z,99864.13
2024-04-22T00:13:33.021Z,99861.72
2024-04-22T00:15:59.771Z,99859.28
2024-04-22T00:18:26.446Z,99862.88
2024-04-22T00:20:53.076Z,99862.31
2024-04-22T00:23:20.916Z,99862.59
2024-04-22T00:25:48.079Z,99864.91
2024-04-22T00:28:14.733Z,99862.88
2024-04-22T00:30:41.355Z,99862.88
2024-04-22T00:33:09.757Z,99862.06
2024-04-22T00:35:36.577Z,99856.97
2024-04-22T00:38:03.499Z,99858.03
2024-04-22T00:40:30.179Z,99866.59
2024-04-22T00:42:56.853Z,99863.66
2024-04-22T00:45:23.415Z,99870.94
2024-04-22T00:47:50.018Z,99868.75
2024-04-22T00:50:16.819Z,99860.53
2024-04-22T00:52:43.545Z,99853.19
2024-04-22T00:55:10.294Z,99856.47
2024-04-22T00:57:41.179Z,99853.69
2024-04-22T01:00:08.353Z,99852.56
2024-04-22T01:02:35.061Z,99860.81
2024-04-22T01:05:02.333Z,99859.66
2024-04-22T01:07:28.974Z,99858.38
2024-04-22T01:09:55.682Z,99859.00
2024-04-22T01:12:22.345Z,99858.38
2024-04-22T01:14:48.921Z,99860.53
2024-04-22T01:17:15.523Z,99852.16
2024-04-22T01:19:42.110Z,99850.75
2024-04-22T01:22:09.223Z,99852.28
2024-04-22T01:24:35.901Z,99843.03
2024-04-22T01:27:05.131Z,99849.69
2024-04-22T01:29:31.887Z,99850.50
2024-04-22T01:31:58.463Z,99845.81
2024-04-22T01:34:25.096Z,99851.22
2024-04-22T01:36:52.041Z,99842.75
2024-04-22T01:39:18.634Z,99844.50
2024-04-22T01:41:45.177Z,99847.75
2024-04-22T01:44:11.773Z,99841.69
2024-04-22T01:46:38.425Z,99841.16
2024-04-22T01:49:05.036Z,99847.47
2024-04-22T01:51:31.630Z,99838.56
2024-04-22T01:53:58.234Z,99841.88
2024-04-22T01:56:24.967Z,99838.63
2024-04-22T01:58:53.169Z,99842.72
2024-04-22T02:01:20.000Z,99841.50
2024-04-22T02:03:46.771Z,99849.03
2024-04-22T02:06:14.005Z,99843.81
2024-04-22T02:08:40.564Z,99844.97
2024-04-22T02:11:07.287Z,99847.81
2024-04-22T02:13:34.075Z,99846.09
2024-04-22T02:16:00.682Z,99846.97
2024-04-22T02:18:28.473Z,99837.38
2024-04-22T02:20:55.071Z,99838.00
2024-04-22T02:23:21.642Z,99852.47
2024-04-22T02:25:48.384Z,99841.72
2024-04-22T02:28:15.293Z,99845.13
2024-04-22T02:30:41.930Z,99843.50
2024-04-22T02:33:09.728Z,99839.00
2024-04-22T02:35:36.613Z,99840.22
2024-04-22T02:38:03.491Z,99837.06
2024-04-22T02:40:30.149Z,99835.91
2024-04-22T02:42:56.746Z,99833.28
2024-04-22T02:45:23.678Z,99831.53
2024-04-22T02:47:50.381Z,99834.06
2024-04-22T02:50:17.402Z,99844.72
2024-04-22T02:52:44.019Z,99840.28
2024-04-22T02:55:11.058Z,99843.81
2024-04-22T02:57:37.655Z,99841.72
2024-04-22T03:00:05.958Z,99833.97
2024-04-22T03:02:32.642Z,99831.09
2024-04-22T03:04:59.274Z,99829.41
2024-04-22T03:07:28.156Z,99825.13
2024-04-22T03:09:54.754Z,99830.28
2024-04-22T03:12:24.189Z,99821.00
2024-04-22T03:14:50.807Z,99830.28
2024-04-22T03:17:17.396Z,99824.03
2024-04-22T03:19:44.051Z,99821.34
2024-04-22T03:22:10.677Z,99829.72
2024-04-22T03:24:37.223Z,99828.28
2024-04-22T03:27:04.490Z,99823.03
2024-04-22T03:29:31.059Z,99823.81
2024-04-22T03:31:57.748Z,99819.09
2024-04-22T03:34:24.469Z,99815.94
2024-04-22T03:36:51.273Z,99812.50
2024-04-22T03:39:17.858Z,99813.78
2024-04-22T03:41:44.435Z,99818.25
2024-04-22T03:44:11.099Z,99813.50
2024-04-22T03:46:56.267Z,99817.09
2024-04-22T03:49:41.633Z,99815.75
2024-04-22T03:52:08.244Z,99815.56
2024-04-22T03:54:34.812Z,99812.03
2024-04-22T03:57:01.382Z,99813.50
2024-04-22T03:59:28.366Z,99810.84
2024-04-22T04:01:54.957Z,99812.06
2024-04-22T04:04:21.652Z,99823.44
2024-04-22T04:06:48.268Z,99813.28
2024-04-22T04:09:15.060Z,99815.81
2024-04-22T04:11:41.777Z,99824.25
2024-04-22T04:14:08.647Z,99815.94
2024-04-22T04:16:35.556Z,99821.63
2024-04-22T04:19:02.227Z,99823.44
2024-04-22T04:21:28.781Z,99828.75
2024-04-22T04:23:55.347Z,99830.72
2024-04-22T04:26:21.905Z,99832.09
2024-04-22T04:28:49.264Z,99836.06
2024-04-22T04:31:16.021Z,99840.09
2024-04-22T04:33:42.644Z,99842.03
2024-04-22T04:36:09.920Z,99839.56
2024-04-22T04:38:37.452Z,99845.84
2024-04-22T04:41:04.598Z,99846.97
2024-04-22T04:43:31.874Z,99841.75
2024-04-22T04:45:59.148Z,99843.69
2024-04-22T04:48:26.337Z,99856.00
2024-04-22T04:50:53.115Z,99853.03
2024-04-22T04:53:21.099Z,99856.44
2024-04-22T04:55:48.495Z,99845.47
2024-04-22T04:58:15.611Z,99854.69
2024-04-22T05:00:42.650Z,99851.13
2024-04-22T05:03:09.605Z,99852.66
2024-04-22T05:05:36.321Z,99860.72
2024-04-22T05:08:04.926Z,99867.69
2024-04-22T05:10:31.846Z,99870.81
2024-04-22T05:12:58.538Z,99872.41
2024-04-22T05:15:25.090Z,99868.66
2024-04-22T05:17:51.913Z,99868.59
2024-04-22T05:20:18.576Z,99870.66
2024-04-22T05:22:45.259Z,99863.63
2024-04-22T05:25:11.899Z,99865.31
2024-04-22T05:27:38.470Z,99864.97
2024-04-22T05:30:05.438Z,99861.75
2024-04-22T05:32:33.488Z,99859.72
2024-04-22T05:35:18.953Z,99857.81
2024-04-22T05:37:45.621Z,99859.28
2024-04-22T05:40:12.314Z,99850.75
2024-04-22T05:42:39.327Z,99851.00
2024-04-22T05:45:06.187Z,99862.50
2024-04-22T05:47:32.879Z,99856.97
2024-04-22T05:50:01.124Z,99851.44
2024-04-22T05:52:28.466Z,99857.78
2024-04-22T05:54:58.259Z,99858.25
2024-04-22T05:57:24.978Z,99858.28
2024-04-22T05:59:52.005Z,99860.22
2024-04-22T06:02:18.615Z,99851.19
2024-04-22T06:04:45.259Z,99856.22
2024-04-22T06:07:11.949Z,99860.19
2024-04-22T06:09:39.139Z,99859.78
2024-04-22T06:12:15.315Z,99855.63
2024-04-22T06:14:46.171Z,99861.91
2024-04-22T06:17:12.938Z,99852.50
2024-04-22T06:19:40.667Z,99853.38
2024-04-22T06:22:07.401Z,99850.91
2024-04-22T06:24:34.021Z,99854.88
2024-04-22T06:27:00.575Z,99852.53
2024-04-22T06:29:27.251Z,99851.91
2024-04-22T06:31:54.028Z,99854.56
2024-04-22T06:34:20.758Z,99847.25
2024-04-22T06:36:47.542Z,99843.41
2024-04-22T06:39:14.216Z,99842.63
2024-04-22T06:41:40.893Z,99850.13
2024-04-22T06:44:07.472Z,99838.28
2024-04-22T06:46:34.237Z,99843.59
2024-04-22T06:49:00.850Z,99843.19
2024-04-22T06:51:27.508Z,99841.47
2024-04-22T06:53:54.080Z,99842.25
2024-04-22T06:56:20.659Z,99839.38
2024-04-22T06:58:47.300Z,99849.47
2024-04-22T07:01:23.946Z,99843.81
2024-04-22T07:03:58.887Z,99838.84
2024-04-22T07:06:25.814Z,99834.63
2024-04-22T07:08:52.676Z,99840.06
2024-04-22T07:11:19.383Z,99842.81
2024-04-22T07:13:46.187Z,99843.41
2024-04-22T07:16:15.229Z,99846.22
2024-04-22T07:18:42.103Z,99833.66
2024-04-22T07:21:08.662Z,99835.03
2024-04-22T07:23:35.221Z,99836.38
2024-04-22T07:26:05.413Z,99833.72
2024-04-22T07:28:32.797Z,99822.78
2024-04-22T07:31:00.952Z,99825.75
2024-04-22T07:33:31.453Z,99824.16
2024-04-22T07:36:25.547Z,99826.88
2024-04-22T07:38:53.690Z,99830.66
2024-04-22T07:41:21.056Z,99819.72
2024-04-22T07:43:47.639Z,99826.38
2024-04-22T07:46:14.288Z,99819.31
2024-04-22T07:48:40.902Z,99826.47
2024-04-22T07:51:07.461Z,99822.94
2024-04-22T07:53:34.342Z,99828.16
2024-04-22T07:56:01.191Z,99823.78
2024-04-22T07:58:28.572Z,99821.22
2024-04-22T08:00:55.541Z,99820.13
2024-04-22T08:03:25.030Z,99819.34
2024-04-22T08:05:52.742Z,99820.25
2024-04-22T08:08:20.482Z,99816.16
2024-04-22T08:10:47.573Z,99812.47
2024-04-22T08:13:14.528Z,99819.28
2024-04-22T08:15:41.316Z,99818.06
2024-04-22T08:18:07.919Z,99818.28
2024-04-22T08:20:34.710Z,99798.47
2024-04-22T08:23:01.483Z,99807.69
2024-04-22T08:25:28.170Z,99817.59
2024-04-22T08:27:54.866Z,99812.03
2024-04-22T08:30:21.579Z,99807.53
2024-04-22T08:32:48.340Z,99808.81
2024-04-22T08:35:16.031Z,99813.38
2024-04-22T08:37:42.716Z,99806.81
2024-04-22T08:40:11.566Z,99809.19
2024-04-22T08:42:39.713Z,99806.31
2024-04-22T08:45:07.663Z,99807.66
2024-04-22T08:47:34.537Z,99810.03
2024-04-22T08:50:01.459Z,99800.16
2024-04-22T08:52:33.659Z,99800.06
2024-04-22T08:55:08.861Z,99818.19
2024-04-22T08:57:35.630Z,99796.81
2024-04-22T09:00:02.484Z,99788.00
2024-04-22T09:02:29.073Z,99789.03
2024-04-22T09:04:56.022Z,99804.88
2024-04-22T09:07:22.814Z,99807.16
2024-04-22T09:10:10.232Z,99803.41
2024-04-22T09:12:36.797Z,99796.38
2024-04-22T09:15:04.166Z,99807.53
2024-04-22T09:17:32.273Z,99801.22
2024-04-22T09:19:59.244Z,99793.53
2024-04-22T09:22:25.895Z,99800.44
2024-04-22T09:24:53.177Z,99792.13
2024-04-22T09:27:19.781Z,99793.91
2024-04-22T09:29:48.188Z,99796.03
2024-04-22T09:32:16.718Z,99786.53
2024-04-22T09:34:44.671Z,99785.69
2024-04-22T09:37:12.045Z,99790.91
2024-04-22T09:39:39.064Z,99785.28
2024-04-22T09:42:06.132Z,99771.78
2024-04-22T09:44:33.403Z,99781.75
2024-04-22T09:47:01.899Z,99783.09
2024-04-22T09:49:30.601Z,99789.06
2024-04-22T09:51:58.189Z,99789.31
2024-04-22T09:54:25.021Z,99790.75
2024-04-22T09:56:52.878Z,99794.75
2024-04-22T09:59:20.855Z,99784.53
2024-04-22T10:01:47.845Z,99796.38
2024-04-22T10:04:15.159Z,99784.59
2024-04-22T10:06:42.336Z,99792.78
2024-04-22T10:09:09.098Z,99776.91
2024-04-22T10:11:38.082Z,99781.50
2024-04-22T10:14:18.285Z,99768.69
2024-04-22T10:16:57.469Z,99773.22
2024-04-22T10:19:24.730Z,99773.63
2024-04-22T10:21:51.747Z,99768.06
2024-04-22T10:24:38.947Z,99769.53
2024-04-22T10:27:11.708Z,99763.59
2024-04-22T10:29:41.761Z,99765.22
2024-04-22T10:32:08.807Z,99763.81
2024-04-22T10:34:39.788Z,99759.25
2024-04-22T10:37:07.220Z,99762.94
2024-04-22T10:39:33.876Z,99759.03
2024-04-22T10:42:00.504Z,99754.84
2024-04-22T10:44:27.165Z,99754.84
2024-04-22T10:46:54.332Z,99755.53
2024-04-22T10:49:21.429Z,99749.78
2024-04-22T10:51:50.391Z,99755.88
2024-04-22T10:54:16.945Z,99749.78
2024-04-22T10:56:43.589Z,99756.53
2024-04-22T10:59:10.239Z,99754.59
2024-04-22T11:01:36.986Z,99754.28
2024-04-22T11:04:04.467Z,99755.13
2024-04-22T11:06:31.103Z,99749.13
2024-04-22T11:08:59.078Z,99750.56
2024-04-22T11:11:25.819Z,99738.84
2024-04-22T11:13:52.584Z,99741.84
2024-04-22T11:16:20.975Z,99728.06
2024-04-22T11:18:48.326Z,99715.97
2024-04-22T11:21:15.621Z,99725.31
2024-04-22T11:23:42.248Z,99732.78
2024-04-22T11:26:10.842Z,99729.44
2024-04-22T11:28:37.552Z,99730.19
2024-04-22T11:31:04.297Z,99720.72
2024-04-22T11:33:30.899Z,99726.75
2024-04-22T11:35:59.231Z,99715.31
2024-04-22T11:38:28.984Z,99724.09
2024-04-22T11:40:55.873Z,99716.47
2024-04-22T11:43:23.433Z,99707.44
2024-04-22T11:45:52.910Z,99694.94
2024-04-22T11:48:20.020Z,99695.53
2024-04-22T11:50:46.646Z,99711.66
2024-04-22T11:53:20.879Z,99721.34
2024-04-22T11:55:52.354Z,99708.81
2024-04-22T11:58:19.760Z,99718.56
2024-04-22T12:00:46.456Z,99719.59
2024-04-22T12:03:13.025Z,99708.88
2024-04-22T12:05:39.629Z,99699.91
2024-04-22T12:08:06.836Z,99689.53
2024-04-22T12:10:33.485Z,99695.31
2024-04-22T12:13:00.147Z,99686.41
2024-04-22T12:15:27.900Z,99685.13
2024-04-22T12:17:54.557Z,99677.16
2024-04-22T12:20:21.128Z,99677.47
2024-04-22T12:22:47.910Z,99675.31
2024-04-22T12:25:14.573Z,99680.69
2024-04-22T12:27:41.134Z,99684.38
2024-04-22T12:30:10.308Z,99677.72
2024-04-22T12:32:39.046Z,99678.09
2024-04-22T12:35:06.100Z,99676.16
2024-04-22T12:37:32.836Z,99670.44
2024-04-22T12:39:59.518Z,99670.13
2024-04-22T12:42:27.200Z,99673.09
2024-04-22T12:44:53.787Z,99673.56
2024-04-22T12:47:39.074Z,99676.53
2024-04-22T12:50:24.449Z,99675.75
2024-04-22T12:52:53.567Z,99673.75
2024-04-22T12:55:20.834Z,99672.41
2024-04-22T12:57:47.444Z,99666.03
2024-04-22T13:00:14.801Z,99668.47
2024-04-22T13:02:41.711Z,99657.53
2024-04-22T13:05:08.417Z,99648.66
2024-04-22T13:07:35.344Z,99648.66
2024-04-22T13:10:02.113Z,99645.19
2024-04-22T13:12:28.805Z,99644.94
2024-04-22T13:14:55.992Z,99639.53
2024-04-22T13:17:22.557Z,99632.00
2024-04-22T13:19:49.333Z,99623.81
2024-04-22T13:22:16.135Z,99615.19
2024-04-22T13:24:42.866Z,99621.09
2024-04-22T13:27:09.424Z,99616.09
2024-04-22T13:29:36.373Z,99615.63
2024-04-22T13:32:03.112Z,99609.34
2024-04-22T13:34:30.181Z,99601.31
2024-04-22T13:36:56.932Z,99608.88
2024-04-22T13:39:25.213Z,99601.63
2024-04-22T13:41:53.947Z,99601.19
2024-04-22T13:44:20.761Z,99602.56
2024-04-22T13:46:47.722Z,99599.09
2024-04-22T13:49:15.463Z,99610.44
2024-04-22T13:51:42.503Z,99595.84
2024-04-22T13:54:09.358Z,99603.75
2024-04-22T13:56:36.236Z,99599.44
2024-04-22T13:59:03.946Z,99593.22
2024-04-22T14:01:31.152Z,99588.38
2024-04-22T14:03:58.267Z,99586.09
2024-04-22T14:06:24.936Z,99577.13
2024-04-22T14:08:51.611Z,99577.97
2024-04-22T14:11:18.694Z,99573.25
2024-04-22T14:13:45.492Z,99582.28
2024-04-22T14:16:12.163Z,99569.69
2024-04-22T14:18:38.756Z,99570.56
2024-04-22T14:21:05.605Z,99553.09
2024-04-22T14:23:32.240Z,99559.69
2024-04-22T14:26:00.414Z,99553.13
2024-04-22T14:28:28.475Z,99559.19
2024-04-22T14:30:55.706Z,99563.19
2024-04-22T14:33:23.775Z,99600.50
2024-04-22T14:35:51.152Z,99597.28
2024-04-22T14:38:17.820Z,99595.56
2024-04-22T14:40:44.566Z,99601.66
2024-04-22T14:43:11.267Z,99581.91
2024-04-22T14:45:38.350Z,99582.28
2024-04-22T14:48:05.433Z,99580.94
2024-04-22T14:50:32.076Z,99565.53
2024-04-22T14:53:00.464Z,99552.50
2024-04-22T14:55:28.498Z,99554.66
2024-04-22T14:57:55.072Z,99542.31
2024-04-22T15:00:21.735Z,99543.16
2024-04-22T15:02:48.450Z,99539.81
2024-04-22T15:05:15.220Z,99532.66
2024-04-22T15:07:42.211Z,99530.31
2024-04-22T15:10:08.811Z,99534.03
2024-04-22T15:12:35.898Z,99529.72
2024-04-22T15:15:02.535Z,99533.97
2024-04-22T15:17:29.172Z,99530.06
2024-04-22T15:19:56.362Z,99534.72
2024-04-22T15:22:23.106Z,99530.25
2024-04-22T15:24:50.452Z,99525.16
2024-04-22T15:27:17.279Z,99524.94
2024-04-22T15:29:44.086Z,99507.66
2024-04-22T15:32:10.733Z,99528.53
2024-04-22T15:34:39.477Z,99522.28
2024-04-22T15:37:06.567Z,99536.50
2024-04-22T15:39:33.372Z,99542.38
2024-04-22T15:42:00.185Z,99531.38
2024-04-22T15:44:26.758Z,99559.22
2024-04-22T15:46:54.188Z,99511.13
2024-04-22T15:49:20.917Z,99513.94
2024-04-22T15:51:50.442Z,99514.56
2024-04-22T15:54:17.119Z,99505.69
2024-04-22T15:56:43.715Z,99495.69
2024-04-22T15:59:10.339Z,99492.72
2024-04-22T16:01:36.999Z,99500.13
2024-04-22T16:04:03.955Z,99505.47
2024-04-22T16:06:30.629Z,99490.22
2024-04-22T16:09:00.346Z,99486.13
2024-04-22T16:11:27.007Z,99491.88
2024-04-22T16:13:53.680Z,99486.75
2024-04-22T16:16:21.090Z,99482.53
2024-04-22T16:18:47.808Z,99489.84
2024-04-22T16:21:17.618Z,99478.44
2024-04-22T16:23:44.461Z,99481.47
2024-04-22T16:26:11.456Z,99480.47
2024-04-22T16:28:38.412Z,99478.19
2024-04-22T16:31:05.073Z,99478.84
2024-04-22T16:33:31.696Z,99470.63
2024-04-22T16:35:58.241Z,99485.34
2024-04-22T16:38:24.976Z,99486.25
2024-04-22T16:40:51.550Z,99492.38
2024-04-22T16:43:20.937Z,99491.69
2024-04-22T16:45:50.181Z,99490.16
2024-04-22T16:48:18.729Z,99491.41
2024-04-22T16:50:47.663Z,99486.19
2024-04-22T16:53:15.669Z,99486.88
2024-04-22T16:55:43.121Z,99501.22
2024-04-22T16:58:09.978Z,99489.59
2024-04-22T17:00:36.588Z,99502.84
2024-04-22T17:03:03.255Z,99495.56
2024-04-22T17:05:29.812Z,99496.25
2024-04-22T17:07:56.490Z,99495.22
2024-04-22T17:10:23.169Z,99498.41
2024-04-22T17:12:50.457Z,99500.47
2024-04-22T17:15:18.022Z,99497.97
2024-04-22T17:17:45.173Z,99492.84
2024-04-22T17:20:12.190Z,99495.97
2024-04-22T17:22:39.449Z,99497.66
2024-04-22T17:25:06.527Z,99504.94
2024-04-22T17:27:33.171Z,99500.88
2024-04-22T17:29:59.860Z,99501.09
2024-04-22T17:32:26.768Z,99506.84
2024-04-22T17:34:53.538Z,99506.84
2024-04-22T17:37:20.848Z,99505.56
2024-04-22T17:39:47.743Z,99505.22
2024-04-22T17:42:14.494Z,99507.16
2024-04-22T17:44:41.462Z,99502.56
2024-04-22T17:47:08.256Z,99502.94
2024-04-22T17:49:34.993Z,99507.66
2024-04-22T17:52:01.714Z,99510.53
2024-04-22T17:54:28.566Z,99513.06
2024-04-22T17:56:59.957Z,99511.44
2024-04-22T17:59:32.141Z,99514.44
2024-04-22T18:01:59.127Z,99514.59
2024-04-22T18:04:27.027Z,99515.81
2024-04-22T18:06:53.819Z,99523.94
2024-04-22T18:09:20.482Z,99529.06
2024-04-22T18:11:47.161Z,99527.09
2024-04-22T18:14:13.728Z,99531.56
2024-04-22T18:16:42.903Z,99537.41
2024-04-22T18:19:09.650Z,99538.38
2024-04-22T18:21:36.240Z,99535.63
2024-04-22T18:24:05.967Z,99541.91
2024-04-22T18:26:34.331Z,99545.53
2024-04-22T18:29:01.596Z,99539.34
2024-04-22T18:31:28.399Z,99544.91
2024-04-22T18:33:54.987Z,99544.56
2024-04-22T18:36:21.609Z,99545.53
2024-04-22T18:38:49.002Z,99547.28
2024-04-22T18:41:15.721Z,99537.69
2024-04-22T18:43:42.886Z,99555.53
2024-04-22T18:46:09.595Z,99554.53
2024-04-22T18:48:36.384Z,99553.16
2024-04-22T18:51:03.220Z,99560.88
2024-04-22T18:53:30.124Z,99562.00
2024-04-22T18:55:56.908Z,99566.53
2024-04-22T18:58:26.199Z,99563.53
2024-04-22T19:00:52.949Z,99569.00
2024-04-22T19:03:19.818Z,99570.59
2024-04-22T19:05:48.617Z,99571.69
2024-04-22T19:08:15.239Z,99582.94
2024-04-22T19:10:41.871Z,99572.22
2024-04-22T19:13:08.503Z,99578.47
2024-04-22T19:15:35.099Z,99578.47
2024-04-22T19:18:01.851Z,99573.53
2024-04-22T19:20:28.534Z,99577.78
2024-04-22T19:22:55.204Z,99584.47
2024-04-22T19:25:22.114Z,99581.19
2024-04-22T19:27:51.193Z,99596.75
2024-04-22T19:30:21.091Z,99592.03
2024-04-22T19:32:48.076Z,99594.97
2024-04-22T19:35:15.839Z,99594.28
2024-04-22T19:37:42.727Z,99596.75
2024-04-22T19:40:09.379Z,99592.66
2024-04-22T19:42:35.941Z,99592.56
2024-04-22T19:45:04.007Z,99595.31
2024-04-22T19:47:31.129Z,99599.97
2024-04-22T19:49:58.003Z,99592.31
2024-04-22T19:52:24.945Z,99602.34
2024-04-22T19:54:54.566Z,99599.78
2024-04-22T19:57:23.059Z,99599.94
2024-04-22T19:59:50.244Z,99599.56
2024-04-22T20:02:16.856Z,99605.47
2024-04-22T20:04:43.632Z,99610.97
2024-04-22T20:07:10.303Z,99606.84
2024-04-22T20:09:36.882Z,99609.22
2024-04-22T20:12:03.636Z,99614.31
2024-04-22T20:14:30.252Z,99603.09
2024-04-22T20:16:56.812Z,99616.97
2024-04-22T20:19:25.628Z,99609.50
2024-04-22T20:21:52.365Z,99617.16
2024-04-22T20:24:18.965Z,99611.41
2024-04-22T20:26:45.531Z,99620.38
2024-04-22T20:29:12.092Z,99614.47
2024-04-22T20:31:38.765Z,99613.00
2024-04-22T20:34:05.736Z,99610.06
2024-04-22T20:36:32.382Z,99602.50
2024-04-22T20:38:58.981Z,99607.38
2024-04-22T20:41:25.546Z,99605.13
2024-04-22T20:43:55.247Z,99601.03
2024-04-22T20:46:21.936Z,99604.69
2024-04-22T20:48:48.565Z,99606.75
2024-04-22T20:51:15.163Z,99612.81
2024-04-22T20:53:41.783Z,99609.72
2024-04-22T20:56:08.384Z,99608.63
2024-04-22T20:58:36.606Z,99610.50
2024-04-22T21:01:05.149Z,99613.00
2024-04-22T21:03:31.967Z,99612.00
2024-04-22T21:05:59.768Z,99614.56
2024-04-22T21:08:27.014Z,99607.03
2024-04-22T21:10:54.348Z,99602.19
2024-04-22T21:13:21.085Z,99608.81
2024-04-22T21:15:48.112Z,99608.81
2024-04-22T21:18:16.695Z,99606.75
2024-04-22T21:20:45.368Z,99605.84
2024-04-22T21:23:11.928Z,99604.63
2024-04-22T21:25:39.115Z,99597.03
2024-04-22T21:28:06.189Z,99597.28
2024-04-22T21:30:32.724Z,99599.38
2024-04-22T21:33:17.782Z,99587.19
2024-04-22T21:35:46.150Z,99596.84
2024-04-22T21:38:14.521Z,99601.25
2024-04-22T21:40:42.314Z,99603.69
2024-04-22T21:43:08.878Z,99604.38
2024-04-22T21:45:35.525Z,99599.97
2024-04-22T21:48:02.097Z,99604.53
2024-04-22T21:50:29.706Z,99601.44
2024-04-22T21:52:56.737Z,99602.44
2024-04-22T21:56:13.653Z,99608.66
2024-04-22T21:59:18.324Z,99604.97
2024-04-22T22:02:22.890Z,99606.25
2024-04-22T22:05:27.030Z,99603.22
2024-04-22T22:07:53.677Z,99613.06
2024-04-22T22:10:20.459Z,99607.66
2024-04-22T22:12:47.211Z,99604.66
2024-04-22T22:15:15.128Z,99607.56
2024-04-22T22:17:42.084Z,99601.13
2024-04-22T22:20:09.069Z,99602.03
2024-04-22T22:22:35.658Z,99593.41
2024-04-22T22:25:02.978Z,99596.94
2024-04-22T22:27:29.672Z,99601.38
2024-04-22T22:29:56.389Z,99597.38
2024-04-22T22:32:23.072Z,99604.19
2024-04-22T22:34:49.971Z,99606.75
2024-04-22T22:37:16.731Z,99601.25
2024-04-22T22:39:43.614Z,99605.31
2024-04-22T22:42:10.693Z,99605.00
2024-04-22T22:44:37.236Z,99606.47
2024-04-22T22:47:05.239Z,99601.63
2024-04-22T22:49:32.120Z,99600.84
2024-04-22T22:51:58.669Z,99599.25
2024-04-22T22:54:25.716Z,99602.63
2024-04-22T22:56:56.766Z,99603.53
2024-04-22T22:59:23.304Z,99603.75
2024-04-22T23:01:50.886Z,99609.41
2024-04-22T23:04:17.629Z,99608.16
2024-04-22T23:07:03.806Z,99610.88
2024-04-22T23:09:30.443Z,99607.00
2024-04-22T23:11:57.292Z,99605.72
2024-04-22T23:14:23.819Z,99606.53
2024-04-22T23:16:50.598Z,99605.13
2024-04-22T23:19:17.526Z,99608.38
2024-04-22T23:21:44.203Z,99609.41
2024-04-22T23:24:10.864Z,99603.81
2024-04-22T23:26:37.395Z,99601.81
2024-04-22T23:29:04.038Z,99599.03
2024-04-22T23:31:30.669Z,99594.25
2024-04-22T23:33:57.261Z,99593.47
2024-04-22T23:36:23.813Z,99587.81
2024-04-22T23:38:51.127Z,99591.44
2024-04-22T23:41:17.753Z,99583.63
2024-04-22T23:43:45.294Z,99582.25
2024-04-22T23:46:11.954Z,99573.38
2024-04-22T23:48:38.518Z,99572.59
2024-04-22T23:51:05.228Z,99577.38
2024-04-22T23:53:31.817Z,99579.66
2024-04-22T23:55:58.456Z,99570.63
2024-04-22T23:58:25.113Z,99573.63
